createdAt,value
2022-08-16T00:02:53.456Z,21.00
2022-08-16T00:05:22.901Z,17.00
2022-08-16T00:07:56.432Z,17.00
2022-08-16T00:10:27.485Z,18.00
2022-08-16T00:12:56.858Z,22.00
2022-08-16T00:15:51.970Z,23.67
2022-08-16T00:18:19.015Z,20.33
2022-08-16T00:20:50.769Z,22.00
2022-08-16T00:23:24.573Z,24.33
2022-08-16T00:26:34.338Z,26.67
2022-08-16T00:28:56.057Z,20.67
2022-08-16T00:31:24.281Z,21.33
2022-08-16T00:33:52.794Z,24.33
2022-08-16T00:36:20.695Z,20.67
2022-08-16T00:38:48.911Z,20.67
2022-08-16T00:41:17.747Z,23.00
2022-08-16T00:43:47.204Z,21.00
2022-08-16T00:46:34.684Z,22.33
2022-08-16T00:49:17.525Z,24.67
2022-08-16T00:51:47.633Z,19.67
2022-08-16T00:54:25.276Z,25.00
2022-08-16T00:56:56.202Z,26.67
2022-08-16T00:59:27.725Z,24.33
2022-08-16T01:01:56.208Z,27.00
2022-08-16T01:04:29.462Z,20.67
2022-08-16T01:07:01.736Z,20.50
2022-08-16T01:09:37.206Z,23.00
2022-08-16T01:12:08.674Z,23.33
2022-08-16T01:14:47.277Z,24.33
2022-08-16T01:17:18.834Z,20.00
2022-08-16T01:19:48.806Z,20.33
2022-08-16T01:22:47.836Z,24.67
2022-08-16T01:25:16.803Z,24.00
2022-08-16T01:27:47.347Z,23.67
2022-08-16T01:30:20.423Z,21.00
2022-08-16T01:33:01.972Z,20.33
2022-08-16T01:35:52.721Z,24.33
2022-08-16T01:38:41.177Z,22.67
2022-08-16T01:41:25.326Z,18.67
2022-08-16T01:43:55.110Z,18.67
2022-08-16T01:46:39.555Z,22.33
2022-08-16T01:49:43.655Z,20.67
2022-08-16T01:52:28.038Z,20.67
2022-08-16T01:55:17.900Z,19.00
2022-08-16T01:57:53.169Z,23.00
2022-08-16T02:00:29.235Z,19.00
2022-08-16T02:02:59.560Z,21.00
2022-08-16T02:05:30.346Z,21.00
2022-08-16T02:07:59.782Z,18.00
2022-08-16T02:10:29.430Z,22.33
2022-08-16T02:13:00.630Z,19.67
2022-08-16T02:15:38.718Z,24.00
2022-08-16T02:18:12.973Z,21.67
2022-08-16T02:20:42.695Z,20.00
2022-08-16T02:23:17.336Z,18.33
2022-08-16T02:25:52.634Z,19.00
2022-08-16T02:28:24.421Z,21.00
2022-08-16T02:30:53.066Z,21.67
2022-08-16T02:33:24.557Z,21.00
2022-08-16T02:35:58.460Z,19.67
2022-08-16T02:38:31.620Z,20.67
2022-08-16T02:41:01.772Z,18.00
2022-08-16T02:43:33.190Z,16.33
2022-08-16T02:46:03.121Z,18.33
2022-08-16T02:48:38.537Z,20.33
2022-08-16T02:51:11.311Z,16.00
2022-08-16T02:53:45.045Z,18.33
2022-08-16T02:56:15.541Z,17.33
2022-08-16T02:58:45.592Z,21.00
2022-08-16T03:01:24.939Z,19.00
2022-08-16T03:04:40.564Z,18.33
2022-08-16T03:06:56.317Z,17.33
2022-08-16T03:09:41.063Z,18.33
2022-08-16T03:12:16.642Z,19.00
2022-08-16T03:14:47.939Z,18.00
2022-08-16T03:17:17.649Z,19.67
2022-08-16T03:19:59.931Z,17.33
2022-08-16T03:22:35.542Z,15.33
2022-08-16T03:25:08.944Z,16.67
2022-08-16T03:27:41.205Z,15.00
2022-08-16T03:30:17.753Z,15.00
2022-08-16T03:32:52.971Z,14.33
2022-08-16T03:35:24.324Z,13.67
2022-08-16T03:38:04.060Z,15.67
2022-08-16T03:40:39.467Z,15.33
2022-08-16T03:43:20.742Z,16.00
2022-08-16T03:45:53.398Z,18.33
2022-08-16T03:48:37.193Z,17.00
2022-08-16T03:51:15.816Z,16.00
2022-08-16T03:54:00.973Z,16.67
2022-08-16T03:56:30.262Z,18.00
2022-08-16T03:58:59.858Z,21.00
2022-08-16T04:01:31.758Z,16.00
2022-08-16T04:04:01.703Z,19.33
2022-08-16T04:06:29.811Z,16.33
2022-08-16T04:08:57.695Z,19.67
2022-08-16T04:11:25.582Z,21.00
2022-08-16T04:14:00.922Z,19.67
2022-08-16T04:16:42.883Z,15.33
2022-08-16T04:19:35.641Z,17.00
2022-08-16T04:22:08.715Z,17.67
2022-08-16T04:24:54.866Z,15.00
2022-08-16T04:27:28.926Z,18.67
2022-08-16T04:30:02.793Z,16.00
2022-08-16T04:32:36.171Z,20.67
2022-08-16T04:35:12.380Z,17.33
2022-08-16T04:37:44.872Z,20.67
2022-08-16T04:40:21.963Z,20.00
2022-08-16T04:42:54.716Z,20.33
2022-08-16T04:45:35.934Z,16.33
2022-08-16T04:48:11.387Z,19.00
2022-08-16T04:50:57.146Z,19.67
2022-08-16T04:53:41.233Z,19.67
2022-08-16T04:56:11.650Z,17.67
2022-08-16T04:58:45.871Z,26.33
2022-08-16T05:01:18.131Z,22.00
2022-08-16T05:04:00.487Z,19.67
2022-08-16T05:06:45.027Z,17.33
2022-08-16T05:09:40.169Z,20.00
2022-08-16T05:12:18.078Z,21.67
2022-08-16T05:15:01.995Z,19.33
2022-08-16T05:17:32.571Z,21.67
2022-08-16T05:20:01.337Z,20.33
2022-08-16T05:22:49.687Z,21.00
2022-08-16T05:25:21.638Z,18.33
2022-08-16T05:27:54.800Z,20.67
2022-08-16T05:30:35.559Z,23.67
2022-08-16T05:33:16.647Z,21.33
2022-08-16T05:35:55.455Z,18.67
2022-08-16T05:38:42.016Z,20.67
2022-08-16T05:41:13.879Z,20.00
2022-08-16T05:43:47.767Z,21.00
2022-08-16T05:46:30.346Z,23.33
2022-08-16T05:49:11.370Z,25.00
2022-08-16T05:51:42.924Z,21.00
2022-08-16T05:54:24.690Z,22.67
2022-08-16T05:56:55.838Z,20.67
2022-08-16T05:59:24.359Z,18.33
2022-08-16T06:01:55.359Z,19.00
2022-08-16T06:04:35.937Z,21.67
2022-08-16T06:07:09.693Z,16.00
2022-08-16T06:09:59.636Z,18.33
2022-08-16T06:12:29.975Z,18.67
2022-08-16T06:15:07.687Z,16.00
2022-08-16T06:17:43.219Z,19.00
2022-08-16T06:20:35.957Z,15.67
2022-08-16T06:23:24.125Z,16.00
2022-08-16T06:26:10.842Z,21.33
2022-08-16T06:28:42.011Z,19.00
2022-08-16T06:31:17.322Z,15.33
2022-08-16T06:33:53.049Z,17.33
2022-08-16T06:36:21.803Z,16.00
2022-08-16T06:38:57.062Z,15.67
2022-08-16T06:41:40.437Z,16.00
2022-08-16T06:44:20.797Z,16.00
2022-08-16T06:46:53.580Z,17.00
2022-08-16T06:49:22.050Z,17.00
2022-08-16T06:51:50.144Z,17.67
2022-08-16T06:54:25.083Z,16.00
2022-08-16T06:56:54.222Z,18.67
2022-08-16T06:59:25.865Z,22.33
2022-08-16T07:01:58.527Z,21.00
2022-08-16T07:04:33.005Z,17.00
2022-08-16T07:07:14.660Z,15.00
2022-08-16T07:09:43.213Z,20.33
2022-08-16T07:12:10.989Z,15.00
2022-08-16T07:14:43.077Z,17.67
2022-08-16T07:17:13.090Z,18.33
2022-08-16T07:20:29.608Z,17.50
2022-08-16T07:22:52.478Z,15.00
2022-08-16T07:25:27.929Z,18.33
2022-08-16T07:27:56.449Z,19.00
2022-08-16T07:30:45.615Z,16.00
2022-08-16T07:33:53.813Z,18.00
2022-08-16T07:36:11.170Z,16.00
2022-08-16T07:38:43.669Z,19.00
2022-08-16T07:41:13.524Z,15.33
2022-08-16T07:43:47.502Z,15.33
2022-08-16T07:46:38.703Z,13.67
2022-08-16T07:49:11.510Z,14.67
2022-08-16T07:51:40.874Z,17.33
2022-08-16T07:54:16.844Z,14.00
2022-08-16T07:56:53.175Z,13.00
2022-08-16T07:59:21.281Z,15.00
2022-08-16T08:01:53.006Z,16.33
2022-08-16T08:04:22.021Z,14.00
2022-08-16T08:06:52.313Z,13.67
2022-08-16T08:09:20.744Z,18.33
2022-08-16T08:11:59.835Z,16.00
2022-08-16T08:14:35.483Z,18.67
2022-08-16T08:17:05.372Z,17.00
2022-08-16T08:19:40.465Z,15.00
2022-08-16T08:22:19.218Z,15.33
2022-08-16T08:24:53.449Z,15.67
2022-08-16T08:27:27.661Z,14.00
2022-08-16T08:30:43.955Z,23.67
2022-08-16T08:32:59.792Z,21.00
2022-08-16T08:35:33.403Z,23.33
2022-08-16T08:38:02.418Z,19.00
2022-08-16T08:40:32.766Z,21.00
2022-08-16T08:43:12.514Z,16.33
2022-08-16T08:45:55.773Z,18.00
2022-08-16T08:48:34.026Z,14.33
2022-08-16T08:51:10.381Z,19.00
2022-08-16T08:54:14.390Z,18.00
2022-08-16T08:56:55.479Z,18.00
2022-08-16T08:59:29.649Z,15.00
2022-08-16T09:01:59.631Z,20.00
2022-08-16T09:04:32.305Z,18.00
2022-08-16T09:07:04.033Z,16.00
2022-08-16T09:09:34.308Z,15.33
2022-08-16T09:12:35.407Z,20.33
2022-08-16T09:15:07.612Z,21.33
2022-08-16T09:17:51.351Z,16.33
2022-08-16T09:20:20.632Z,17.00
2022-08-16T09:22:52.583Z,17.33
2022-08-16T09:25:33.670Z,17.00
2022-08-16T09:28:09.312Z,22.00
2022-08-16T09:30:56.430Z,16.00
2022-08-16T09:33:25.787Z,17.33
2022-08-16T09:35:54.480Z,18.00
2022-08-16T09:38:32.100Z,21.00
2022-08-16T09:41:06.691Z,20.33
2022-08-16T09:44:00.251Z,18.67
2022-08-16T09:46:45.876Z,18.00
2022-08-16T09:49:19.814Z,16.33
2022-08-16T09:51:53.686Z,19.00
2022-08-16T09:54:22.035Z,14.00
2022-08-16T09:56:52.739Z,19.00
2022-08-16T09:59:23.010Z,16.33
2022-08-16T10:01:51.899Z,16.00
2022-08-16T10:04:31.698Z,17.00
2022-08-16T10:07:11.771Z,18.00
2022-08-16T10:09:54.622Z,16.33
2022-08-16T10:12:46.787Z,19.00
2022-08-16T10:15:24.570Z,16.33
2022-08-16T10:17:59.522Z,16.33
2022-08-16T10:20:31.766Z,16.00
2022-08-16T10:23:06.080Z,17.33
2022-08-16T10:27:19.013Z,14.00
2022-08-16T10:28:29.976Z,15.67
2022-08-16T10:31:00.773Z,14.67
2022-08-16T10:33:34.353Z,15.67
2022-08-16T10:36:06.351Z,13.00
2022-08-16T10:38:37.202Z,14.50
2022-08-16T10:41:06.958Z,17.00
2022-08-16T10:43:36.208Z,22.33
2022-08-16T10:46:40.149Z,12.00
2022-08-16T10:48:53.906Z,11.67
2022-08-16T10:51:34.483Z,12.00
2022-08-16T10:54:28.818Z,13.33
2022-08-16T10:56:59.483Z,13.00
2022-08-16T10:59:38.494Z,15.33
2022-08-16T11:02:57.910Z,13.67
2022-08-16T11:05:08.951Z,11.00
2022-08-16T11:07:53.331Z,11.67
2022-08-16T11:13:58.186Z,14.00
2022-08-16T11:16:26.794Z,15.00
2022-08-16T11:19:06.056Z,10.67
2022-08-16T11:24:41.244Z,13.00
2022-08-16T11:27:23.541Z,17.25
2022-08-16T11:29:54.809Z,19.00
2022-08-16T11:32:31.719Z,18.33
2022-08-16T11:35:14.984Z,18.67
2022-08-16T11:40:52.389Z,18.00
2022-08-16T11:43:23.487Z,16.00
2022-08-16T11:45:54.554Z,19.00
2022-08-16T11:48:25.640Z,18.33
2022-08-16T11:50:54.021Z,18.67
2022-08-16T11:53:23.933Z,15.67
2022-08-16T11:55:54.927Z,18.00
2022-08-16T11:58:24.560Z,17.00
2022-08-16T12:00:54.099Z,16.67
2022-08-16T12:03:34.544Z,18.00
2022-08-16T12:06:11.210Z,14.00
2022-08-16T12:09:00.851Z,17.00
2022-08-16T12:11:31.607Z,16.00
2022-08-16T12:14:00.823Z,13.00
2022-08-16T12:16:31.168Z,16.00
2022-08-16T12:19:04.312Z,16.33
2022-08-16T12:21:36.132Z,22.00
2022-08-16T12:24:21.922Z,14.67
2022-08-16T12:26:52.840Z,14.00
2022-08-16T12:29:22.456Z,15.00
2022-08-16T12:32:00.711Z,15.00
2022-08-16T12:34:48.056Z,17.00
2022-08-16T12:37:21.138Z,15.00
2022-08-16T12:39:51.164Z,15.00
2022-08-16T12:42:20.649Z,18.00
2022-08-16T12:44:50.248Z,16.00
2022-08-16T12:47:36.699Z,15.67
2022-08-16T12:50:10.480Z,20.33
2022-08-16T12:52:52.448Z,15.50
2022-08-16T12:55:23.897Z,15.33
2022-08-16T12:58:02.250Z,16.00
2022-08-16T13:00:32.882Z,20.33
2022-08-16T13:03:02.325Z,18.67
2022-08-16T13:08:04.610Z,21.33
2022-08-16T13:10:37.002Z,21.00
2022-08-16T13:13:08.879Z,21.67
2022-08-16T13:15:55.779Z,20.67
2022-08-16T13:18:33.787Z,20.00
2022-08-16T13:21:07.031Z,19.00
2022-08-16T13:23:36.208Z,20.33
2022-08-16T13:26:12.800Z,19.00
2022-08-16T13:28:47.703Z,20.00
2022-08-16T13:31:16.901Z,20.67
2022-08-16T13:33:45.502Z,21.00
2022-08-16T13:36:32.247Z,20.00
2022-08-16T13:39:03.105Z,22.00
2022-08-16T13:41:32.526Z,20.00
2022-08-16T13:44:01.050Z,20.00
2022-08-16T13:46:35.594Z,21.00
2022-08-16T13:49:05.230Z,20.00
2022-08-16T13:51:33.507Z,21.67
2022-08-16T13:54:03.923Z,20.00
2022-08-16T13:56:38.660Z,22.00
2022-08-16T13:59:14.286Z,19.67
2022-08-16T14:01:55.587Z,24.00
2022-08-16T14:04:28.735Z,18.00
2022-08-16T14:07:00.672Z,24.67
2022-08-16T14:09:30.331Z,19.67
2022-08-16T14:12:00.968Z,18.00
2022-08-16T14:14:32.607Z,19.33
2022-08-16T14:17:01.648Z,19.50
2022-08-16T14:19:30.354Z,21.00
2022-08-16T14:22:14.215Z,20.00
2022-08-16T14:24:47.455Z,21.00
2022-08-16T14:27:21.194Z,23.00
2022-08-16T14:29:50.721Z,22.67
2022-08-16T14:32:27.221Z,20.67
2022-08-16T14:35:12.364Z,18.33
2022-08-16T14:37:43.127Z,19.00
2022-08-16T14:40:12.870Z,19.00
2022-08-16T14:42:44.119Z,18.67
2022-08-16T14:45:13.726Z,20.00
2022-08-16T14:47:41.958Z,19.00
2022-08-16T14:50:13.633Z,18.67
2022-08-16T14:52:56.644Z,21.00
2022-08-16T14:55:26.485Z,18.67
2022-08-16T14:57:54.837Z,18.00
2022-08-16T15:00:33.197Z,20.00
2022-08-16T15:03:06.007Z,20.00
2022-08-16T15:05:34.016Z,20.00
2022-08-16T15:08:03.570Z,21.00
2022-08-16T15:10:32.550Z,19.67
2022-08-16T15:13:01.397Z,21.00
2022-08-16T15:15:30.009Z,20.00
2022-08-16T15:17:58.535Z,24.00
2022-08-16T15:20:31.772Z,22.67
2022-08-16T15:23:01.480Z,19.33
2022-08-16T15:25:31.261Z,21.67
2022-08-16T15:28:04.643Z,15.67
2022-08-16T15:30:58.450Z,14.33
2022-08-16T15:33:26.891Z,14.00
2022-08-16T15:35:55.469Z,12.00
2022-08-16T15:38:54.632Z,15.67
2022-08-16T15:41:31.577Z,15.00
2022-08-16T15:44:05.285Z,17.00
2022-08-16T15:46:57.124Z,18.00
2022-08-16T15:49:37.071Z,17.00
2022-08-16T15:52:11.248Z,16.00
2022-08-16T15:54:52.178Z,17.33
2022-08-16T15:57:22.355Z,20.00
2022-08-16T15:59:52.951Z,20.00
2022-08-16T16:02:27.778Z,17.00
2022-08-16T16:05:01.047Z,17.67
2022-08-16T16:07:31.247Z,17.67
2022-08-16T16:10:00.123Z,20.00
2022-08-16T16:15:17.728Z,18.00
2022-08-16T16:17:50.681Z,15.00
2022-08-16T16:20:27.574Z,16.33
2022-08-16T16:23:01.335Z,18.00
2022-08-16T16:25:29.912Z,19.00
2022-08-16T16:28:00.261Z,17.33
2022-08-16T16:30:42.944Z,16.67
2022-08-16T16:33:15.855Z,16.67
2022-08-16T16:35:56.713Z,17.67
2022-08-16T16:38:30.749Z,16.00
2022-08-16T16:41:08.910Z,21.00
2022-08-16T16:43:40.492Z,18.00
2022-08-16T16:46:40.760Z,18.67
2022-08-16T16:48:58.179Z,21.67
2022-08-16T16:51:27.871Z,18.33
2022-08-16T16:53:57.252Z,17.00
2022-08-16T16:56:31.125Z,20.00
2022-08-16T16:59:06.235Z,15.33
2022-08-16T17:01:56.817Z,16.67
2022-08-16T17:04:31.729Z,18.67
2022-08-16T17:07:01.631Z,20.33
2022-08-16T17:09:30.494Z,18.00
2022-08-16T17:11:59.060Z,19.67
2022-08-16T17:14:33.160Z,18.67
2022-08-16T17:17:05.123Z,18.67
2022-08-16T17:19:33.583Z,20.33
2022-08-16T17:22:02.239Z,15.33
2022-08-16T17:24:39.575Z,19.00
2022-08-16T17:27:08.958Z,18.67
2022-08-16T17:29:46.073Z,17.00
2022-08-16T17:32:47.387Z,19.33
2022-08-16T17:35:10.750Z,17.67
2022-08-16T17:37:48.731Z,18.00
2022-08-16T17:40:45.883Z,18.00
2022-08-16T17:43:15.500Z,18.00
2022-08-16T17:45:43.683Z,15.00
2022-08-16T17:48:12.064Z,19.00
2022-08-16T17:50:41.747Z,20.00
2022-08-16T17:53:11.380Z,16.00
2022-08-16T17:55:42.113Z,17.00
2022-08-16T17:58:22.930Z,16.33
2022-08-16T18:00:53.761Z,14.00
2022-08-16T18:04:02.431Z,14.00
2022-08-16T18:06:13.984Z,15.00
2022-08-16T18:08:42.735Z,14.67
2022-08-16T18:11:13.290Z,18.33
2022-08-16T18:13:43.311Z,17.67
2022-08-16T18:16:12.261Z,16.33
2022-08-16T18:18:40.331Z,15.00
2022-08-16T18:21:31.449Z,18.00
2022-08-16T18:23:59.928Z,17.67
2022-08-16T18:26:27.817Z,18.00
2022-08-16T18:28:55.604Z,18.00
2022-08-16T18:31:23.561Z,20.33
2022-08-16T18:33:54.696Z,20.33
2022-08-16T18:36:24.433Z,17.00
2022-08-16T18:38:53.290Z,18.33
2022-08-16T18:41:23.815Z,23.33
2022-08-16T18:44:23.787Z,21.67
2022-08-16T18:46:40.937Z,19.00
2022-08-16T18:49:09.215Z,19.67
2022-08-16T18:51:38.269Z,17.00
2022-08-16T18:54:06.165Z,13.67
2022-08-16T18:56:55.079Z,18.33
2022-08-16T18:59:21.843Z,14.67
2022-08-16T19:01:50.445Z,15.33
2022-08-16T19:04:55.075Z,18.00
2022-08-16T19:07:06.190Z,14.00
2022-08-16T19:09:34.693Z,14.00
2022-08-16T19:12:09.421Z,15.67
2022-08-16T19:14:40.832Z,14.33
2022-08-16T19:17:11.306Z,14.00
2022-08-16T19:19:39.082Z,12.00
2022-08-16T19:22:06.919Z,19.00
2022-08-16T19:24:34.746Z,12.67
2022-08-16T19:27:03.543Z,17.00
2022-08-16T19:29:31.673Z,14.00
2022-08-16T19:31:59.599Z,16.00
2022-08-16T19:34:27.389Z,15.00
2022-08-16T19:36:56.673Z,12.33
2022-08-16T19:39:26.179Z,12.33
2022-08-16T19:41:57.016Z,13.33
2022-08-16T19:44:24.796Z,14.67
2022-08-16T19:46:52.636Z,12.00
2022-08-16T19:49:20.387Z,12.00
2022-08-16T19:51:48.314Z,14.33
2022-08-16T19:54:16.765Z,16.67
2022-08-16T19:56:44.737Z,16.00
2022-08-16T19:59:19.860Z,14.00
2022-08-16T20:01:52.390Z,19.00
2022-08-16T20:04:22.189Z,16.00
2022-08-16T20:06:51.015Z,15.33
2022-08-16T20:09:21.648Z,15.00
2022-08-16T20:11:50.229Z,17.67
2022-08-16T20:14:24.269Z,16.67
2022-08-16T20:16:54.871Z,17.00
2022-08-16T20:19:22.846Z,18.00
2022-08-16T20:21:51.123Z,18.33
2022-08-16T20:24:35.890Z,19.67
2022-08-16T20:27:06.509Z,16.00
2022-08-16T20:29:34.525Z,13.67
2022-08-16T20:32:02.973Z,16.00
2022-08-16T20:34:31.142Z,16.00
2022-08-16T20:36:58.965Z,13.00
2022-08-16T20:39:27.362Z,16.00
2022-08-16T20:41:55.360Z,18.50
2022-08-16T20:44:25.068Z,17.67
2022-08-16T20:46:53.339Z,19.33
2022-08-16T20:49:21.216Z,17.67
2022-08-16T20:51:53.489Z,14.33
2022-08-16T20:54:24.424Z,24.33
2022-08-16T20:56:52.691Z,19.67
2022-08-16T20:59:20.868Z,16.33
2022-08-16T21:01:50.203Z,16.33
2022-08-16T21:04:19.799Z,14.33
2022-08-16T21:06:54.128Z,25.67
2022-08-16T21:09:25.592Z,21.33
2022-08-16T21:11:54.995Z,29.67
2022-08-16T21:14:23.681Z,29.33
2022-08-16T21:16:51.830Z,24.33
2022-08-16T21:19:20.088Z,24.67
2022-08-16T21:21:48.554Z,20.67
2022-08-16T21:24:17.224Z,20.67
2022-08-16T21:26:55.048Z,18.33
2022-08-16T21:29:28.481Z,18.00
2022-08-16T21:32:11.419Z,17.33
2022-08-16T21:34:39.418Z,13.67
2022-08-16T21:37:07.348Z,18.67
2022-08-16T21:39:35.226Z,19.33
2022-08-16T21:42:07.652Z,22.67
2022-08-16T21:44:39.000Z,21.33
2022-08-16T21:47:08.269Z,18.67
2022-08-16T21:49:37.020Z,19.00
2022-08-16T21:52:06.492Z,18.33
2022-08-16T21:54:34.827Z,20.33
2022-08-16T21:57:05.515Z,16.67
2022-08-16T21:59:35.387Z,14.00
2022-08-16T22:02:03.509Z,16.67
2022-08-16T22:04:37.113Z,18.67
2022-08-16T22:07:07.089Z,18.67
2022-08-16T22:09:35.726Z,20.67
2022-08-16T22:12:04.120Z,16.67
2022-08-16T22:14:32.548Z,18.00
2022-08-16T22:17:00.689Z,19.00
2022-08-16T22:19:28.511Z,16.00
2022-08-16T22:21:56.267Z,15.67
2022-08-16T22:24:24.241Z,16.67
2022-08-16T22:26:52.190Z,19.33
2022-08-16T22:29:20.165Z,20.67
2022-08-16T22:31:48.131Z,19.00
2022-08-16T22:34:15.893Z,17.33
2022-08-16T22:36:44.109Z,14.33
2022-08-16T22:39:13.575Z,16.33
2022-08-16T22:41:43.439Z,17.33
2022-08-16T22:44:12.590Z,16.00
2022-08-16T22:46:41.277Z,22.33
2022-08-16T22:49:09.227Z,34.33
2022-08-16T22:51:37.996Z,41.33
2022-08-16T22:54:43.811Z,33.00
2022-08-16T22:56:55.267Z,31.67
2022-08-16T22:59:25.183Z,40.33
2022-08-16T23:01:53.667Z,38.00
2022-08-16T23:04:22.290Z,37.67
2022-08-16T23:06:50.082Z,39.67
2022-08-16T23:09:18.325Z,35.33
2022-08-16T23:11:46.257Z,27.00
2022-08-16T23:14:14.005Z,41.33
2022-08-16T23:16:42.425Z,37.67
2022-08-16T23:19:11.583Z,36.00
2022-08-16T23:21:41.670Z,34.00
2022-08-16T23:24:09.593Z,26.67
2022-08-16T23:26:48.090Z,20.00
2022-08-16T23:29:24.060Z,29.33
2022-08-16T23:31:56.076Z,21.33
2022-08-16T23:34:25.121Z,23.00
2022-08-16T23:36:53.003Z,27.67
2022-08-16T23:39:20.975Z,31.33
2022-08-16T23:41:48.822Z,23.67
2022-08-16T23:44:55.563Z,20.33
2022-08-16T23:47:06.226Z,23.67
2022-08-16T23:50:01.899Z,18.00
2022-08-16T23:52:39.267Z,16.67
2022-08-16T23:55:10.537Z,19.33
2022-08-16T23:57:38.474Z,16.33
